Nova Gorica, Slovenia

1:38 PM CEST on October 01, 2014 (GMT +0200)
Orehovlje | Change Station
CLOSE
Current Station
Personal Weather Station
Location: Orehovlje,
Elevation: 164 ft
Nearby Weather Stations

Elev 164 ft 45.89 °N, 13.61 °E | Updated 5 seconds ago

Mostly Cloudy
Mostly Cloudy
70.0 °F
Feels Like 70.0 °F
N
2.9
Wind Variable Wind from West
Gusts 3.8 mph

Today
High -- | Low -- °F
--% Chance of Precip.
Yesterday
High -- | Low -- °F
Precip. -- in
7:03 AM 6:46 PM
Waxing Crescent, 46% visible
Pressure 30.24 in
Visibility 5.6 miles
Clouds Few 3000 ft
Mostly Cloudy 7000 ft
Dew Point 59 °F
Humidity 69%
Rainfall 0.00 in
Snow Depth Not available.
UV 3 out of 12
Pollen Not available.
Air Quality Not available.
Flu Activity Not available.
METAR LIPQ 011120Z VRB02KT 9000 FEW030 BKN070 22/16 Q1024

More Conditions Fewer Conditions

Pressure 30.24 in
Visibility 5.6 miles
Clouds Few 3000 ft
Mostly Cloudy 7000 ft
Dew Point 59 °F
Humidity 69%
Rainfall 0.00 in
Snow Depth Not available.
UV 3 out of 12
Pollen Not available.
Air Quality Not available.
Flu Activity Not available.
METAR LIPQ 011120Z VRB02KT 9000 FEW030 BKN070 22/16 Q1024

More Conditions Fewer Conditions

10-Day Weather Forecast

Almanac

Astronomy

Oct. 01, 2014 Rise Set
Actual Time 7:03 AM CEST 6:46 PM CEST
Civil Twilight 6:33 AM CEST 7:15 PM CEST
Nautical Twilight 5:59 AM CEST 7:50 PM CEST
Astronomical Twilight 5:23 AM CEST 8:25 PM CEST
Moon 2:03 PM CEST 11:46 PM CEST
Length of Visible Light 12h 42m
Length of Day
11h 42m
Tomorrow will be 3m 12s shorter.
Waxing Crescent, 46% of the Moon is Illuminated
Today
Waxing Crescent
Oct 1
First Quarter
Oct 8
Full
Oct 15
Last Quarter
Oct 23
New

Yesterday's Extremes

Country Highs Country Lows

Community

WunderPhotos

Upload Photos

1,757,913 photos uploaded!

Nearby

Snow Depth

Not available.

Earthquake Activity

City Distance Mag. Time & Date
No recent earthquake activity has been reported nearby.
Minimum magnitude displayed is 2.5.

Coastal Water Temperatures

Place Temperature
No Stations Reporting

Nearby Weather Stations